sensor_id;sensor_type;location;lat;lon;timestamp;temperature;humidity
29173;DHT22;16223;47.966;-1.616;2022-09-17T00:00:36;9.8;85
29173;DHT22;16223;47.966;-1.616;2022-09-17T00:01:36;9.8;85
29173;DHT22;16223;47.966;-1.616;2022-09-17T00:02:36;9.7;86
29173;DHT22;16223;47.966;-1.616;2022-09-17T00:03:37;9.7;86
29173;DHT22;16223;47.966;-1.616;2022-09-17T00:04:36;9.7;86
29173;DHT22;16223;47.966;-1.616;2022-09-17T00:05:36;9.7;86
29173;DHT22;16223;47.966;-1.616;2022-09-17T00:06:36;9.7;86
29173;DHT22;16223;47.966;-1.616;2022-09-17T00:07:35;9.7;86
29173;DHT22;16223;47.966;-1.616;2022-09-17T00:08:37;9.7;86
29173;DHT22;16223;47.966;-1.616;2022-09-17T00:09:36;9.7;86
29173;DHT22;16223;47.966;-1.616;2022-09-17T00:10:40;9.7;86
29173;DHT22;16223;47.966;-1.616;2022-09-17T00:11:38;9.7;86
29173;DHT22;16223;47.966;-1.616;2022-09-17T00:12:35;9.7;86
29173;DHT22;16223;47.966;-1.616;2022-09-17T00:13:36;9.7;86
29173;DHT22;16223;47.966;-1.616;2022-09-17T00:14:36;9.7;86
29173;DHT22;16223;47.966;-1.616;2022-09-17T00:15:42;9.7;86
29173;DHT22;16223;47.966;-1.616;2022-09-17T00:16:38;9.7;86
29173;DHT22;16223;47.966;-1.616;2022-09-17T00:17:36;9.7;86
29173;DHT22;16223;47.966;-1.616;2022-09-17T00:18:36;9.7;86
29173;DHT22;16223;47.966;-1.616;2022-09-17T00:19:36;9.7;86
29173;DHT22;16223;47.966;-1.616;2022-09-17T00:20:40;9.7;86
29173;DHT22;16223;47.966;-1.616;2022-09-17T00:21:36;9.7;86
29173;DHT22;16223;47.966;-1.616;2022-09-17T00:22:36;9.7;86
29173;DHT22;16223;47.966;-1.616;2022-09-17T00:23:36;9.7;86
29173;DHT22;16223;47.966;-1.616;2022-09-17T00:24:36;9.7;86
29173;DHT22;16223;47.966;-1.616;2022-09-17T00:25:39;9.7;86
29173;DHT22;16223;47.966;-1.616;2022-09-17T00:26:36;9.7;86
29173;DHT22;16223;47.966;-1.616;2022-09-17T00:27:36;9.7;86
29173;DHT22;16223;47.966;-1.616;2022-09-17T00:28:37;9.7;86
29173;DHT22;16223;47.966;-1.616;2022-09-17T00:29:36;9.7;86
29173;DHT22;16223;47.966;-1.616;2022-09-17T00:30:37;9.7;86
29173;DHT22;16223;47.966;-1.616;2022-09-17T00:31:36;9.7;86
29173;DHT22;16223;47.966;-1.616;2022-09-17T00:32:36;9.7;86
29173;DHT22;16223;47.966;-1.616;2022-09-17T00:33:36;9.7;86
29173;DHT22;16223;47.966;-1.616;2022-09-17T00:34:36;9.7;86
29173;DHT22;16223;47.966;-1.616;2022-09-17T00:35:36;9.7;86
29173;DHT22;16223;47.966;-1.616;2022-09-17T00:36:37;9.7;86
29173;DHT22;16223;47.966;-1.616;2022-09-17T00:37:36;9.7;86
29173;DHT22;16223;47.966;-1.616;2022-09-17T00:38:36;9.7;86
29173;DHT22;16223;47.966;-1.616;2022-09-17T00:39:36;9.7;86
29173;DHT22;16223;47.966;-1.616;2022-09-17T00:40:37;9.7;86
29173;DHT22;16223;47.966;-1.616;2022-09-17T00:41:37;9.7;86
29173;DHT22;16223;47.966;-1.616;2022-09-17T00:42:35;9.7;86
29173;DHT22;16223;47.966;-1.616;2022-09-17T00:43:38;9.7;86
29173;DHT22;16223;47.966;-1.616;2022-09-17T00:44:53;9.7;86
29173;DHT22;16223;47.966;-1.616;2022-09-17T00:45:36;9.7;86
29173;DHT22;16223;47.966;-1.616;2022-09-17T00:46:37;9.7;86
29173;DHT22;16223;47.966;-1.616;2022-09-17T00:47:37;9.7;86
29173;DHT22;16223;47.966;-1.616;2022-09-17T00:48:36;9.7;86
29173;DHT22;16223;47.966;-1.616;2022-09-17T00:49:36;9.7;86
29173;DHT22;16223;47.966;-1.616;2022-09-17T00:50:38;9.7;86
29173;DHT22;16223;47.966;-1.616;2022-09-17T00:51:39;9.7;86
29173;DHT22;16223;47.966;-1.616;2022-09-17T00:52:39;9.7;86
29173;DHT22;16223;47.966;-1.616;2022-09-17T00:53:36;9.7;86
29173;DHT22;16223;47.966;-1.616;2022-09-17T00:54:38;9.7;86
29173;DHT22;16223;47.966;-1.616;2022-09-17T00:55:38;9.7;86
29173;DHT22;16223;47.966;-1.616;2022-09-17T00:56:37;9.7;86
29173;DHT22;16223;47.966;-1.616;2022-09-17T00:57:37;9.7;86
29173;DHT22;16223;47.966;-1.616;2022-09-17T00:58:38;9.7;86
29173;DHT22;16223;47.966;-1.616;2022-09-17T00:59:36;9.7;86
29173;DHT22;16223;47.966;-1.616;2022-09-17T01:00:36;9.6;87
29173;DHT22;16223;47.966;-1.616;2022-09-17T01:01:36;9.6;87
29173;DHT22;16223;47.966;-1.616;2022-09-17T01:02:36;9.6;87
29173;DHT22;16223;47.966;-1.616;2022-09-17T01:03:36;9.6;87
29173;DHT22;16223;47.966;-1.616;2022-09-17T01:04:36;9.6;87
29173;DHT22;16223;47.966;-1.616;2022-09-17T01:05:43;9.6;87
29173;DHT22;16223;47.966;-1.616;2022-09-17T01:06:41;9.6;87
29173;DHT22;16223;47.966;-1.616;2022-09-17T01:07:47;9.6;87
29173;DHT22;16223;47.966;-1.616;2022-09-17T01:08:44;9.6;87
29173;DHT22;16223;47.966;-1.616;2022-09-17T01:09:45;9.6;87
29173;DHT22;16223;47.966;-1.616;2022-09-17T01:11:08;9.6;87
29173;DHT22;16223;47.966;-1.616;2022-09-17T01:11:46;9.6;87
29173;DHT22;16223;47.966;-1.616;2022-09-17T01:12:48;9.6;87
29173;DHT22;16223;47.966;-1.616;2022-09-17T01:13:44;9.6;87
29173;DHT22;16223;47.966;-1.616;2022-09-17T01:14:45;9.6;87
29173;DHT22;16223;47.966;-1.616;2022-09-17T01:15:40;9.6;87
29173;DHT22;16223;47.966;-1.616;2022-09-17T01:16:40;9.6;87
29173;DHT22;16223;47.966;-1.616;2022-09-17T01:17:41;9.6;87
29173;DHT22;16223;47.966;-1.616;2022-09-17T01:18:45;9.6;87
29173;DHT22;16223;47.966;-1.616;2022-09-17T01:19:58;9.3;87
29173;DHT22;16223;47.966;-1.616;2022-09-17T01:20:53;9.3;87
29173;DHT22;16223;47.966;-1.616;2022-09-17T01:21:44;9.3;87
29173;DHT22;16223;47.966;-1.616;2022-09-17T01:22:43;9.3;87
29173;DHT22;16223;47.966;-1.616;2022-09-17T01:24:20;9.3;87
29173;DHT22;16223;47.966;-1.616;2022-09-17T01:25:41;9.3;87
29173;DHT22;16223;47.966;-1.616;2022-09-17T01:29:40;9.3;87
29173;DHT22;16223;47.966;-1.616;2022-09-17T01:31:02;9.3;87
29173;DHT22;16223;47.966;-1.616;2022-09-17T01:31:32;9.3;87
29173;DHT22;16223;47.966;-1.616;2022-09-17T01:32:30;9.3;87
29173;DHT22;16223;47.966;-1.616;2022-09-17T01:33:32;9.3;87
29173;DHT22;16223;47.966;-1.616;2022-09-17T01:34:29;9.3;87
29173;DHT22;16223;47.966;-1.616;2022-09-17T01:35:36;9.3;87
29173;DHT22;16223;47.966;-1.616;2022-09-17T01:36:40;9.3;87
29173;DHT22;16223;47.966;-1.616;2022-09-17T01:37:31;9.3;87
29173;DHT22;16223;47.966;-1.616;2022-09-17T01:38:30;9.3;87
29173;DHT22;16223;47.966;-1.616;2022-09-17T01:39:33;9.3;87
29173;DHT22;16223;47.966;-1.616;2022-09-17T01:40:31;9.3;87
29173;DHT22;16223;47.966;-1.616;2022-09-17T01:41:32;9.3;87
29173;DHT22;16223;47.966;-1.616;2022-09-17T01:42:31;9.3;87
29173;DHT22;16223;47.966;-1.616;2022-09-17T01:43:32;9.3;87
29173;DHT22;16223;47.966;-1.616;2022-09-17T01:44:33;9.3;87
29173;DHT22;16223;47.966;-1.616;2022-09-17T01:45:31;9.3;87
29173;DHT22;16223;47.966;-1.616;2022-09-17T01:46:31;9.3;87
29173;DHT22;16223;47.966;-1.616;2022-09-17T01:47:29;9.3;87
29173;DHT22;16223;47.966;-1.616;2022-09-17T01:48:30;9.3;87
29173;DHT22;16223;47.966;-1.616;2022-09-17T01:49:27;9.3;87
29173;DHT22;16223;47.966;-1.616;2022-09-17T01:50:30;9.3;87
29173;DHT22;16223;47.966;-1.616;2022-09-17T01:51:30;8.8;89
29173;DHT22;16223;47.966;-1.616;2022-09-17T01:52:28;8.8;89
29173;DHT22;16223;47.966;-1.616;2022-09-17T01:53:31;8.8;89
29173;DHT22;16223;47.966;-1.616;2022-09-17T01:54:29;8.8;89
29173;DHT22;16223;47.966;-1.616;2022-09-17T01:55:32;8.8;89
29173;DHT22;16223;47.966;-1.616;2022-09-17T01:56:29;8.7;89
29173;DHT22;16223;47.966;-1.616;2022-09-17T01:57:30;8.7;89
29173;DHT22;16223;47.966;-1.616;2022-09-17T01:58:28;8.7;89
29173;DHT22;16223;47.966;-1.616;2022-09-17T01:59:31;8.7;89
29173;DHT22;16223;47.966;-1.616;2022-09-17T02:00:27;8.7;89
29173;DHT22;16223;47.966;-1.616;2022-09-17T02:01:30;8.7;89
29173;DHT22;16223;47.966;-1.616;2022-09-17T02:02:29;8.7;89
29173;DHT22;16223;47.966;-1.616;2022-09-17T02:03:30;8.7;89
29173;DHT22;16223;47.966;-1.616;2022-09-17T02:04:28;8.7;89
29173;DHT22;16223;47.966;-1.616;2022-09-17T02:05:30;8.7;89
29173;DHT22;16223;47.966;-1.616;2022-09-17T02:06:30;8.7;89
29173;DHT22;16223;47.966;-1.616;2022-09-17T02:07:27;8.7;89
29173;DHT22;16223;47.966;-1.616;2022-09-17T02:08:29;8.7;89
29173;DHT22;16223;47.966;-1.616;2022-09-17T02:09:30;8.7;89
29173;DHT22;16223;47.966;-1.616;2022-09-17T02:10:30;8.7;89
29173;DHT22;16223;47.966;-1.616;2022-09-17T02:11:27;8.7;89
29173;DHT22;16223;47.966;-1.616;2022-09-17T02:12:30;8.7;89
29173;DHT22;16223;47.966;-1.616;2022-09-17T02:13:30;8.7;89
29173;DHT22;16223;47.966;-1.616;2022-09-17T02:14:32;8.7;89
29173;DHT22;16223;47.966;-1.616;2022-09-17T02:15:32;8.7;89
29173;DHT22;16223;47.966;-1.616;2022-09-17T02:16:29;8.7;89
29173;DHT22;16223;47.966;-1.616;2022-09-17T02:17:31;8.7;89
29173;DHT22;16223;47.966;-1.616;2022-09-17T02:18:30;8.7;89
29173;DHT22;16223;47.966;-1.616;2022-09-17T02:19:29;8.7;89
29173;DHT22;16223;47.966;-1.616;2022-09-17T02:20:33;8.7;89
29173;DHT22;16223;47.966;-1.616;2022-09-17T02:21:32;8.7;89
29173;DHT22;16223;47.966;-1.616;2022-09-17T02:22:31;8.7;89
29173;DHT22;16223;47.966;-1.616;2022-09-17T02:23:30;8.7;89
29173;DHT22;16223;47.966;-1.616;2022-09-17T02:24:29;8.7;89
29173;DHT22;16223;47.966;-1.616;2022-09-17T02:25:30;8.7;89
29173;DHT22;16223;47.966;-1.616;2022-09-17T02:26:28;8.7;89
29173;DHT22;16223;47.966;-1.616;2022-09-17T02:27:36;8.7;89
29173;DHT22;16223;47.966;-1.616;2022-09-17T02:28:30;8.7;89
29173;DHT22;16223;47.966;-1.616;2022-09-17T02:29:31;8.7;89
29173;DHT22;16223;47.966;-1.616;2022-09-17T02:30:27;8.7;89
29173;DHT22;16223;47.966;-1.616;2022-09-17T02:31:27;8.7;89
29173;DHT22;16223;47.966;-1.616;2022-09-17T02:32:27;8.7;89
29173;DHT22;16223;47.966;-1.616;2022-09-17T02:33:27;8.7;89
29173;DHT22;16223;47.966;-1.616;2022-09-17T02:34:28;8.7;89
29173;DHT22;16223;47.966;-1.616;2022-09-17T02:35:27;8.7;89
29173;DHT22;16223;47.966;-1.616;2022-09-17T02:36:29;8.3;90
29173;DHT22;16223;47.966;-1.616;2022-09-17T02:37:27;8.3;90
29173;DHT22;16223;47.966;-1.616;2022-09-17T02:38:29;8.3;90
29173;DHT22;16223;47.966;-1.616;2022-09-17T02:39:28;8.3;90
29173;DHT22;16223;47.966;-1.616;2022-09-17T02:40:30;8.3;90
29173;DHT22;16223;47.966;-1.616;2022-09-17T02:41:35;8.3;90
29173;DHT22;16223;47.966;-1.616;2022-09-17T02:42:32;8.3;90
29173;DHT22;16223;47.966;-1.616;2022-09-17T02:43:31;8.3;90
29173;DHT22;16223;47.966;-1.616;2022-09-17T02:44:31;8.3;90
29173;DHT22;16223;47.966;-1.616;2022-09-17T02:45:39;8.3;90
29173;DHT22;16223;47.966;-1.616;2022-09-17T02:46:54;8.3;90
29173;DHT22;16223;47.966;-1.616;2022-09-17T02:47:43;8.3;90
29173;DHT22;16223;47.966;-1.616;2022-09-17T02:48:46;8.3;90
29173;DHT22;16223;47.966;-1.616;2022-09-17T02:49:40;8.3;90
29173;DHT22;16223;47.966;-1.616;2022-09-17T02:50:35;8.3;90
29173;DHT22;16223;47.966;-1.616;2022-09-17T02:51:33;8.3;90
29173;DHT22;16223;47.966;-1.616;2022-09-17T02:52:40;8.3;90
29173;DHT22;16223;47.966;-1.616;2022-09-17T02:53:38;8.3;90
29173;DHT22;16223;47.966;-1.616;2022-09-17T02:54:30;8.0;92
29173;DHT22;16223;47.966;-1.616;2022-09-17T02:55:30;8.0;92
29173;DHT22;16223;47.966;-1.616;2022-09-17T02:56:34;8.0;92
29173;DHT22;16223;47.966;-1.616;2022-09-17T02:57:32;8.0;92
29173;DHT22;16223;47.966;-1.616;2022-09-17T02:58:30;8.0;92
29173;DHT22;16223;47.966;-1.616;2022-09-17T02:59:30;8.0;92
29173;DHT22;16223;47.966;-1.616;2022-09-17T03:00:27;8.0;92
29173;DHT22;16223;47.966;-1.616;2022-09-17T03:01:33;7.8;92
29173;DHT22;16223;47.966;-1.616;2022-09-17T03:02:30;7.8;92
29173;DHT22;16223;47.966;-1.616;2022-09-17T03:03:30;7.8;92
29173;DHT22;16223;47.966;-1.616;2022-09-17T03:04:29;7.8;92
29173;DHT22;16223;47.966;-1.616;2022-09-17T03:05:28;7.8;92
29173;DHT22;16223;47.966;-1.616;2022-09-17T03:06:27;7.8;92
29173;DHT22;16223;47.966;-1.616;2022-09-17T03:07:27;7.8;92
29173;DHT22;16223;47.966;-1.616;2022-09-17T03:08:31;7.8;92
29173;DHT22;16223;47.966;-1.616;2022-09-17T03:09:27;7.8;92
29173;DHT22;16223;47.966;-1.616;2022-09-17T03:10:27;7.8;92
29173;DHT22;16223;47.966;-1.616;2022-09-17T03:11:27;7.8;92
29173;DHT22;16223;47.966;-1.616;2022-09-17T03:12:27;7.8;92
29173;DHT22;16223;47.966;-1.616;2022-09-17T03:13:27;7.8;92
29173;DHT22;16223;47.966;-1.616;2022-09-17T03:14:27;7.8;92
29173;DHT22;16223;47.966;-1.616;2022-09-17T03:15:27;7.8;92
29173;DHT22;16223;47.966;-1.616;2022-09-17T03:16:27;7.8;92
29173;DHT22;16223;47.966;-1.616;2022-09-17T03:17:27;7.8;92
29173;DHT22;16223;47.966;-1.616;2022-09-17T03:18:27;7.8;92
29173;DHT22;16223;47.966;-1.616;2022-09-17T03:19:27;7.8;92
29173;DHT22;16223;47.966;-1.616;2022-09-17T03:20:27;7.8;92
29173;DHT22;16223;47.966;-1.616;2022-09-17T03:21:27;7.8;92
29173;DHT22;16223;47.966;-1.616;2022-09-17T03:22:27;7.8;92
29173;DHT22;16223;47.966;-1.616;2022-09-17T03:23:27;7.8;92
29173;DHT22;16223;47.966;-1.616;2022-09-17T03:24:27;7.8;92
29173;DHT22;16223;47.966;-1.616;2022-09-17T03:25:27;7.8;92
29173;DHT22;16223;47.966;-1.616;2022-09-17T03:26:27;7.8;92
29173;DHT22;16223;47.966;-1.616;2022-09-17T03:27:27;7.8;92
29173;DHT22;16223;47.966;-1.616;2022-09-17T03:28:27;7.8;92
29173;DHT22;16223;47.966;-1.616;2022-09-17T03:29:27;7.8;92
29173;DHT22;16223;47.966;-1.616;2022-09-17T03:30:27;7.8;92
29173;DHT22;16223;47.966;-1.616;2022-09-17T03:31:27;7.8;92
29173;DHT22;16223;47.966;-1.616;2022-09-17T03:32:27;7.8;92
29173;DHT22;16223;47.966;-1.616;2022-09-17T03:33:27;7.8;92
29173;DHT22;16223;47.966;-1.616;2022-09-17T03:34:37;7.8;92
29173;DHT22;16223;47.966;-1.616;2022-09-17T03:35:27;7.8;92
29173;DHT22;16223;47.966;-1.616;2022-09-17T03:36:27;7.8;92
29173;DHT22;16223;47.966;-1.616;2022-09-17T03:37:27;7.8;92
29173;DHT22;16223;47.966;-1.616;2022-09-17T03:38:27;7.8;92
29173;DHT22;16223;47.966;-1.616;2022-09-17T03:39:26;7.8;92
29173;DHT22;16223;47.966;-1.616;2022-09-17T03:40:27;7.8;92
29173;DHT22;16223;47.966;-1.616;2022-09-17T03:41:28;7.8;92
29173;DHT22;16223;47.966;-1.616;2022-09-17T03:42:27;7.8;92
29173;DHT22;16223;47.966;-1.616;2022-09-17T03:43:27;7.8;92
29173;DHT22;16223;47.966;-1.616;2022-09-17T03:44:27;7.8;92
29173;DHT22;16223;47.966;-1.616;2022-09-17T03:45:27;7.8;92
29173;DHT22;16223;47.966;-1.616;2022-09-17T03:46:27;7.8;92
29173;DHT22;16223;47.966;-1.616;2022-09-17T03:47:27;7.8;92
29173;DHT22;16223;47.966;-1.616;2022-09-17T03:48:27;7.8;92
29173;DHT22;16223;47.966;-1.616;2022-09-17T03:49:27;7.8;92
29173;DHT22;16223;47.966;-1.616;2022-09-17T03:50:27;7.8;92
29173;DHT22;16223;47.966;-1.616;2022-09-17T03:51:27;7.8;92
29173;DHT22;16223;47.966;-1.616;2022-09-17T03:52:27;7.8;92
29173;DHT22;16223;47.966;-1.616;2022-09-17T03:53:27;7.8;93
29173;DHT22;16223;47.966;-1.616;2022-09-17T03:54:27;7.8;93
29173;DHT22;16223;47.966;-1.616;2022-09-17T03:55:27;7.8;93
29173;DHT22;16223;47.966;-1.616;2022-09-17T03:56:27;7.8;93
29173;DHT22;16223;47.966;-1.616;2022-09-17T03:57:26;7.8;93
29173;DHT22;16223;47.966;-1.616;2022-09-17T03:58:27;7.8;93
29173;DHT22;16223;47.966;-1.616;2022-09-17T03:59:27;7.8;93
29173;DHT22;16223;47.966;-1.616;2022-09-17T04:00:27;7.8;93
29173;DHT22;16223;47.966;-1.616;2022-09-17T04:01:27;7.8;93
29173;DHT22;16223;47.966;-1.616;2022-09-17T04:02:28;7.8;93
29173;DHT22;16223;47.966;-1.616;2022-09-17T04:03:28;7.8;93
29173;DHT22;16223;47.966;-1.616;2022-09-17T04:04:28;7.8;93
29173;DHT22;16223;47.966;-1.616;2022-09-17T04:05:28;7.8;93
29173;DHT22;16223;47.966;-1.616;2022-09-17T04:06:27;7.8;93
29173;DHT22;16223;47.966;-1.616;2022-09-17T04:07:27;7.8;93
29173;DHT22;16223;47.966;-1.616;2022-09-17T04:08:27;7.8;93
29173;DHT22;16223;47.966;-1.616;2022-09-17T04:09:27;7.8;93
29173;DHT22;16223;47.966;-1.616;2022-09-17T04:10:28;7.8;93
29173;DHT22;16223;47.966;-1.616;2022-09-17T04:11:27;7.8;93
29173;DHT22;16223;47.966;-1.616;2022-09-17T04:12:27;7.8;93
29173;DHT22;16223;47.966;-1.616;2022-09-17T04:13:27;7.8;93
29173;DHT22;16223;47.966;-1.616;2022-09-17T04:14:27;7.8;93
29173;DHT22;16223;47.966;-1.616;2022-09-17T04:15:27;7.8;93
29173;DHT22;16223;47.966;-1.616;2022-09-17T04:16:27;7.8;93
29173;DHT22;16223;47.966;-1.616;2022-09-17T04:17:27;7.8;93
29173;DHT22;16223;47.966;-1.616;2022-09-17T04:18:27;7.8;93
29173;DHT22;16223;47.966;-1.616;2022-09-17T04:19:26;7.8;93
29173;DHT22;16223;47.966;-1.616;2022-09-17T04:20:27;7.8;93
29173;DHT22;16223;47.966;-1.616;2022-09-17T04:21:27;7.8;93
29173;DHT22;16223;47.966;-1.616;2022-09-17T04:22:27;7.8;93
29173;DHT22;16223;47.966;-1.616;2022-09-17T04:23:27;7.8;93
29173;DHT22;16223;47.966;-1.616;2022-09-17T04:24:27;7.8;93
29173;DHT22;16223;47.966;-1.616;2022-09-17T04:25:27;7.8;93
29173;DHT22;16223;47.966;-1.616;2022-09-17T04:26:27;7.8;93
29173;DHT22;16223;47.966;-1.616;2022-09-17T04:27:27;7.8;93
29173;DHT22;16223;47.966;-1.616;2022-09-17T04:28:26;7.8;93
29173;DHT22;16223;47.966;-1.616;2022-09-17T04:29:27;7.8;93
29173;DHT22;16223;47.966;-1.616;2022-09-17T04:30:27;7.8;93
29173;DHT22;16223;47.966;-1.616;2022-09-17T04:31:27;7.8;93
29173;DHT22;16223;47.966;-1.616;2022-09-17T04:32:27;7.8;93
29173;DHT22;16223;47.966;-1.616;2022-09-17T04:33:27;7.8;93
29173;DHT22;16223;47.966;-1.616;2022-09-17T04:34:27;7.8;93
29173;DHT22;16223;47.966;-1.616;2022-09-17T04:35:27;7.8;93
29173;DHT22;16223;47.966;-1.616;2022-09-17T04:36:27;7.8;93
29173;DHT22;16223;47.966;-1.616;2022-09-17T04:37:27;7.8;93
29173;DHT22;16223;47.966;-1.616;2022-09-17T04:38:28;7.8;93
29173;DHT22;16223;47.966;-1.616;2022-09-17T04:39:27;7.8;93
29173;DHT22;16223;47.966;-1.616;2022-09-17T04:40:28;7.8;93
29173;DHT22;16223;47.966;-1.616;2022-09-17T04:41:26;7.8;93
29173;DHT22;16223;47.966;-1.616;2022-09-17T04:42:27;7.8;93
29173;DHT22;16223;47.966;-1.616;2022-09-17T04:43:26;7.5;94
29173;DHT22;16223;47.966;-1.616;2022-09-17T04:44:27;7.5;94
29173;DHT22;16223;47.966;-1.616;2022-09-17T04:45:28;7.5;94
29173;DHT22;16223;47.966;-1.616;2022-09-17T04:46:27;7.5;94
29173;DHT22;16223;47.966;-1.616;2022-09-17T04:47:27;7.5;94
29173;DHT22;16223;47.966;-1.616;2022-09-17T04:48:27;7.5;94
29173;DHT22;16223;47.966;-1.616;2022-09-17T04:49:27;7.5;94
29173;DHT22;16223;47.966;-1.616;2022-09-17T04:50:27;7.5;94
29173;DHT22;16223;47.966;-1.616;2022-09-17T04:51:27;7.5;94
29173;DHT22;16223;47.966;-1.616;2022-09-17T04:52:27;7.5;94
29173;DHT22;16223;47.966;-1.616;2022-09-17T04:53:27;7.5;94
29173;DHT22;16223;47.966;-1.616;2022-09-17T04:54:27;7.5;94
29173;DHT22;16223;47.966;-1.616;2022-09-17T04:55:27;7.5;94
29173;DHT22;16223;47.966;-1.616;2022-09-17T04:56:27;7.5;94
29173;DHT22;16223;47.966;-1.616;2022-09-17T04:57:28;7.5;94
29173;DHT22;16223;47.966;-1.616;2022-09-17T04:58:27;7.5;94
29173;DHT22;16223;47.966;-1.616;2022-09-17T04:59:27;7.5;94
29173;DHT22;16223;47.966;-1.616;2022-09-17T05:00:27;7.5;94
29173;DHT22;16223;47.966;-1.616;2022-09-17T05:01:27;7.5;94
29173;DHT22;16223;47.966;-1.616;2022-09-17T05:02:27;7.5;94
29173;DHT22;16223;47.966;-1.616;2022-09-17T05:03:27;7.5;94
29173;DHT22;16223;47.966;-1.616;2022-09-17T05:04:27;7.5;94
29173;DHT22;16223;47.966;-1.616;2022-09-17T05:05:27;7.5;94
29173;DHT22;16223;47.966;-1.616;2022-09-17T05:06:27;7.5;94
29173;DHT22;16223;47.966;-1.616;2022-09-17T05:07:27;7.5;94
29173;DHT22;16223;47.966;-1.616;2022-09-17T05:08:27;7.5;94
29173;DHT22;16223;47.966;-1.616;2022-09-17T05:09:27;7.5;94
29173;DHT22;16223;47.966;-1.616;2022-09-17T05:10:27;7.5;94
29173;DHT22;16223;47.966;-1.616;2022-09-17T05:11:28;7.5;94
29173;DHT22;16223;47.966;-1.616;2022-09-17T05:12:27;7.5;94
29173;DHT22;16223;47.966;-1.616;2022-09-17T05:13:27;7.5;94
29173;DHT22;16223;47.966;-1.616;2022-09-17T05:14:27;7.5;94
29173;DHT22;16223;47.966;-1.616;2022-09-17T05:15:27;7.5;94
29173;DHT22;16223;47.966;-1.616;2022-09-17T05:16:27;7.5;94
29173;DHT22;16223;47.966;-1.616;2022-09-17T05:17:27;7.5;94
29173;DHT22;16223;47.966;-1.616;2022-09-17T05:18:27;7.5;94
29173;DHT22;16223;47.966;-1.616;2022-09-17T05:19:27;7.5;94
29173;DHT22;16223;47.966;-1.616;2022-09-17T05:20:27;7.5;94
29173;DHT22;16223;47.966;-1.616;2022-09-17T05:21:27;7.5;94
29173;DHT22;16223;47.966;-1.616;2022-09-17T05:22:27;7.5;94
29173;DHT22;16223;47.966;-1.616;2022-09-17T05:23:28;7.5;94
29173;DHT22;16223;47.966;-1.616;2022-09-17T05:24:27;7.5;94
29173;DHT22;16223;47.966;-1.616;2022-09-17T05:25:27;7.5;94
29173;DHT22;16223;47.966;-1.616;2022-09-17T05:26:26;7.5;94
29173;DHT22;16223;47.966;-1.616;2022-09-17T05:27:27;7.5;94
29173;DHT22;16223;47.966;-1.616;2022-09-17T05:28:27;7.5;94
29173;DHT22;16223;47.966;-1.616;2022-09-17T05:29:27;7.5;94
29173;DHT22;16223;47.966;-1.616;2022-09-17T05:30:28;7.5;94
29173;DHT22;16223;47.966;-1.616;2022-09-17T05:31:27;7.5;94
29173;DHT22;16223;47.966;-1.616;2022-09-17T05:32:26;7.5;94
29173;DHT22;16223;47.966;-1.616;2022-09-17T05:33:27;7.5;94
29173;DHT22;16223;47.966;-1.616;2022-09-17T05:34:28;7.5;94
29173;DHT22;16223;47.966;-1.616;2022-09-17T05:35:27;7.5;94
29173;DHT22;16223;47.966;-1.616;2022-09-17T05:36:27;7.5;94
29173;DHT22;16223;47.966;-1.616;2022-09-17T05:37:27;7.5;94
29173;DHT22;16223;47.966;-1.616;2022-09-17T05:38:28;7.5;94
29173;DHT22;16223;47.966;-1.616;2022-09-17T05:39:27;7.5;94
29173;DHT22;16223;47.966;-1.616;2022-09-17T05:40:28;7.5;94
29173;DHT22;16223;47.966;-1.616;2022-09-17T05:41:27;7.8;93
29173;DHT22;16223;47.966;-1.616;2022-09-17T05:42:27;7.8;93
29173;DHT22;16223;47.966;-1.616;2022-09-17T05:43:27;7.8;93
29173;DHT22;16223;47.966;-1.616;2022-09-17T05:44:27;7.8;93
29173;DHT22;16223;47.966;-1.616;2022-09-17T05:45:27;7.8;93
29173;DHT22;16223;47.966;-1.616;2022-09-17T05:46:27;7.8;93
29173;DHT22;16223;47.966;-1.616;2022-09-17T05:47:27;7.8;93
29173;DHT22;16223;47.966;-1.616;2022-09-17T05:48:27;7.8;93
29173;DHT22;16223;47.966;-1.616;2022-09-17T05:49:27;7.8;93
29173;DHT22;16223;47.966;-1.616;2022-09-17T05:50:28;7.8;93
29173;DHT22;16223;47.966;-1.616;2022-09-17T05:51:27;7.8;93
29173;DHT22;16223;47.966;-1.616;2022-09-17T05:52:28;7.8;93
29173;DHT22;16223;47.966;-1.616;2022-09-17T05:53:27;7.8;93
29173;DHT22;16223;47.966;-1.616;2022-09-17T05:54:27;7.8;93
29173;DHT22;16223;47.966;-1.616;2022-09-17T05:55:28;7.8;93
29173;DHT22;16223;47.966;-1.616;2022-09-17T05:56:27;7.8;93
29173;DHT22;16223;47.966;-1.616;2022-09-17T05:57:30;7.8;93
29173;DHT22;16223;47.966;-1.616;2022-09-17T05:58:28;7.8;93
29173;DHT22;16223;47.966;-1.616;2022-09-17T05:59:27;7.8;93
29173;DHT22;16223;47.966;-1.616;2022-09-17T06:00:27;7.8;93
29173;DHT22;16223;47.966;-1.616;2022-09-17T06:01:27;7.8;93
29173;DHT22;16223;47.966;-1.616;2022-09-17T06:02:28;7.8;93
29173;DHT22;16223;47.966;-1.616;2022-09-17T06:03:26;7.8;93
29173;DHT22;16223;47.966;-1.616;2022-09-17T06:04:27;7.8;93
29173;DHT22;16223;47.966;-1.616;2022-09-17T06:05:27;7.8;93
29173;DHT22;16223;47.966;-1.616;2022-09-17T06:06:29;7.8;93
29173;DHT22;16223;47.966;-1.616;2022-09-17T06:07:27;7.8;93
29173;DHT22;16223;47.966;-1.616;2022-09-17T06:08:28;7.8;93
29173;DHT22;16223;47.966;-1.616;2022-09-17T06:09:27;7.8;93
29173;DHT22;16223;47.966;-1.616;2022-09-17T06:10:26;7.8;93
29173;DHT22;16223;47.966;-1.616;2022-09-17T06:11:26;7.8;93
29173;DHT22;16223;47.966;-1.616;2022-09-17T06:12:27;7.8;93
29173;DHT22;16223;47.966;-1.616;2022-09-17T06:13:27;7.8;93
29173;DHT22;16223;47.966;-1.616;2022-09-17T06:14:27;7.8;93
29173;DHT22;16223;47.966;-1.616;2022-09-17T06:15:28;7.8;93
29173;DHT22;16223;47.966;-1.616;2022-09-17T06:16:27;7.8;93
29173;DHT22;16223;47.966;-1.616;2022-09-17T06:17:27;7.8;93
29173;DHT22;16223;47.966;-1.616;2022-09-17T06:18:29;7.8;93
29173;DHT22;16223;47.966;-1.616;2022-09-17T06:19:27;7.8;93
29173;DHT22;16223;47.966;-1.616;2022-09-17T06:20:27;7.8;93
29173;DHT22;16223;47.966;-1.616;2022-09-17T06:21:30;7.8;93
29173;DHT22;16223;47.966;-1.616;2022-09-17T06:22:27;7.8;93
29173;DHT22;16223;47.966;-1.616;2022-09-17T06:23:30;7.8;93
29173;DHT22;16223;47.966;-1.616;2022-09-17T06:24:27;7.8;93
29173;DHT22;16223;47.966;-1.616;2022-09-17T06:25:27;7.8;93
29173;DHT22;16223;47.966;-1.616;2022-09-17T06:26:27;7.8;93
29173;DHT22;16223;47.966;-1.616;2022-09-17T06:27:31;7.8;93
29173;DHT22;16223;47.966;-1.616;2022-09-17T06:28:27;7.8;93
29173;DHT22;16223;47.966;-1.616;2022-09-17T06:29:27;7.8;93
29173;DHT22;16223;47.966;-1.616;2022-09-17T06:30:28;7.8;93
29173;DHT22;16223;47.966;-1.616;2022-09-17T06:31:27;7.8;93
29173;DHT22;16223;47.966;-1.616;2022-09-17T06:32:27;7.8;93
29173;DHT22;16223;47.966;-1.616;2022-09-17T06:33:27;7.8;93
29173;DHT22;16223;47.966;-1.616;2022-09-17T06:34:27;7.8;93
29173;DHT22;16223;47.966;-1.616;2022-09-17T06:35:27;7.8;93
29173;DHT22;16223;47.966;-1.616;2022-09-17T06:36:27;8.1;93
29173;DHT22;16223;47.966;-1.616;2022-09-17T06:37:29;8.1;93
29173;DHT22;16223;47.966;-1.616;2022-09-17T06:38:27;8.1;93
29173;DHT22;16223;47.966;-1.616;2022-09-17T06:39:27;8.3;93
29173;DHT22;16223;47.966;-1.616;2022-09-17T06:40:28;8.3;93
29173;DHT22;16223;47.966;-1.616;2022-09-17T06:41:27;8.3;93
29173;DHT22;16223;47.966;-1.616;2022-09-17T06:42:27;8.3;93
29173;DHT22;16223;47.966;-1.616;2022-09-17T06:43:28;8.3;93
29173;DHT22;16223;47.966;-1.616;2022-09-17T06:44:27;8.3;93
29173;DHT22;16223;47.966;-1.616;2022-09-17T06:45:27;8.3;93
29173;DHT22;16223;47.966;-1.616;2022-09-17T06:46:27;8.3;93
29173;DHT22;16223;47.966;-1.616;2022-09-17T06:47:27;8.3;93
29173;DHT22;16223;47.966;-1.616;2022-09-17T06:48:28;8.3;93